Ride Results

Upper Corindi (08-08-2010)
Ride distance: 80.0 km

Outcomes - Upper Corindi (08-08-2010)
Division No. of Entries Retired / DNE Completed Withdrawn Ineligible V/O Percentage Completed
HW 6 - 6 - - - 100.00%
MW 12 - 11 - - 1 91.67%
LW 10 - 9 - - 1 90.00%
JN 2 - 2 - - - 100.00%
Totals 30 - 28 - - 2 93.33%
Results - Upper Corindi (08-08-2010)
No. Rider Horse Place Time Leg Speeds Total
Km/Hr
H/R bpm
Heavyweight
30 Tad Cossins Jaytee Silhouette 1 7:12:00 16.1, 8.4 11.11 31, 40, 41 (Avg:40)
14 Selwyn Nix Dunbar Mahadik 2 (BC) 7:15:00 12.0, 10.1 11.03 26, 37, 47 (Avg:42)
26 Allan Caslick Nandawar Silver Shadow 3 7:41:00 10.9, 9.9 10.41 38, 43, 54 (Avg:48)
9 Alwyn Torenbeek Pardon 4 7:46:00 12.1, 8.9 10.30 33, 44, 50 (Avg:47)
10 Phil Coleman Alnotarj Statistic 5 8:02:00 11.2, 8.9 9.96 34, 40, 42 (Avg:41)
27 Will Standfield Stanpark Little Joe 6 8:53:00 9.3, 8.6 9.01 36, 50, 50 (Avg:50)
Middleweight
23 Jim Lillyman Meadowbrook Rhapsody 1 (BC) 6:37:00 14.2, 10.4 12.09 28, 37, 43 (Avg:40)
6 Jennifer Caslick Tarrangower Gameel Ashquar 2 7:09:00 14.3, 9.1 11.19 30, 40, 44 (Avg:42)
15 Derryn Nix Rowallan Rufous 3 7:15:00 12.0, 10.1 11.03 45, 39, 48 (Avg:43)
8 Amanda Stirling Belyando 4 7:46:00 12.1, 8.9 10.30 37, 38, 48 (Avg:43)
4 Alan Roberts Splendacrest Zayante 5 7:57:00 10.8, 9.3 10.06 31, 44, 46 (Avg:45)
29 Rhys Rayner Stanpark Rupert 6 8:03:00 9.7, 10.0 9.94 37, 44, 59 (Avg:51)
17 Angela Head La-Battist Saxon 7 8:51:00 10.3, 7.9 9.04 36, 44, 49 (Avg:46)
28 Cindy Day Stanpark Meg 8 8:53:00 9.3, 8.6 9.01 35, 40, 44 (Avg:42)
25 Ruth Van der Wegen Razorback Kendra 8 8:53:00 8.8, 9.1 9.01 35, 40, 48 (Avg:44)
16 Frances Mudford Summerwood Naivasha 10 8:57:00 8.8, 9.0 8.94 30, 38, 47 (Avg:42)
13 Sonya Ruprecht Alhambra Windfaerer 10 8:57:00 8.8, 9.0 8.94 32, 44, 47 (Avg:45)
18 Peter Kelly Kerewong Shelfyre Lame L2 0:00:00 11.1, 8.8 - 34, 38, 47 (Avg:42)
Lightweight
20 Clare Fleming Splendacrest Superb 1 (BC) 6:02:00 16.1, 11.2 13.26 35, 46, 52 (Avg:49)
31 Allix Jones Razorback Hot Pepper 2 7:15:00 10.9, 11.1 11.03 40, 41, 50 (Avg:45)
24 Pip Lillyman Splendacrest Dryad 3 7:28:00 14.1, 8.6 10.71 35, 43, 56 (Avg:49)
3 Samantha Hausler Natham Park A Drenalin 4 7:57:00 10.8, 9.3 10.06 37, 42, 50 (Avg:46)
2 Kirsty Owen Maf-Ue Khaio 4 7:57:00 10.8, 9.3 10.06 34, 46, 53 (Avg:49)
11 Ros Ryan Rainbows Reach Scout 6 8:02:00 11.2, 8.9 9.96 30, 35, 43 (Avg:39)
12 Jan Wade Hajra Leonie 6 8:02:00 11.2, 8.9 9.96 39, 40, 49 (Avg:44)
19 Xanthe Webb Ramalea Laila 6 8:02:00 11.1, 8.9 9.96 36, 37, 43 (Avg:40)
22 Carol Layton Aloha Ameer 9 8:53:00 8.8, 9.1 9.01 32, 38, 43 (Avg:40)
21 Judy Battams Landmark Sarafeena Lame L1 0:00:00 16.1 - 43, 45 (Avg:45)
Junior
5 Hannah Houlden Armani Thunder 1 (BC) 6:02:00 16.1, 11.2 13.26 41, 42, 49 (Avg:45)
7 Dylan Keys Elfar Viper Fire 1 6:02:00 16.2, 11.2 13.26 34, 41, 39 (Avg:40)